sensor_id;sensor_type;location;lat;lon;timestamp;P1;durP1;ratioP1;P2;durP2;ratioP2
46439;SDS011;32138;50.966;6.968;2023-07-30T00:00:48;3.92;;;3.05;;
46439;SDS011;32138;50.966;6.968;2023-07-30T00:02:20;4.07;;;2.20;;
46439;SDS011;32138;50.966;6.968;2023-07-30T00:03:51;3.65;;;2.58;;
46439;SDS011;32138;50.966;6.968;2023-07-30T00:05:22;5.30;;;2.60;;
46439;SDS011;32138;50.966;6.968;2023-07-30T00:06:52;2.95;;;2.45;;
46439;SDS011;32138;50.966;6.968;2023-07-30T00:08:23;3.28;;;2.35;;
46439;SDS011;32138;50.966;6.968;2023-07-30T00:09:54;4.43;;;2.28;;
46439;SDS011;32138;50.966;6.968;2023-07-30T00:11:25;4.65;;;2.05;;
46439;SDS011;32138;50.966;6.968;2023-07-30T00:12:55;3.38;;;1.90;;
46439;SDS011;32138;50.966;6.968;2023-07-30T00:14:26;3.67;;;2.05;;
46439;SDS011;32138;50.966;6.968;2023-07-30T00:15:57;3.30;;;2.42;;
46439;SDS011;32138;50.966;6.968;2023-07-30T00:17:28;5.13;;;2.38;;
46439;SDS011;32138;50.966;6.968;2023-07-30T00:18:58;4.32;;;2.58;;
46439;SDS011;32138;50.966;6.968;2023-07-30T00:20:29;4.10;;;2.22;;
46439;SDS011;32138;50.966;6.968;2023-07-30T00:22:00;3.38;;;2.22;;
46439;SDS011;32138;50.966;6.968;2023-07-30T00:23:31;4.13;;;2.13;;
46439;SDS011;32138;50.966;6.968;2023-07-30T00:25:01;5.43;;;2.53;;
46439;SDS011;32138;50.966;6.968;2023-07-30T00:26:33;4.03;;;2.17;;
46439;SDS011;32138;50.966;6.968;2023-07-30T00:28:04;4.13;;;1.92;;
46439;SDS011;32138;50.966;6.968;2023-07-30T00:29:35;3.97;;;2.20;;
46439;SDS011;32138;50.966;6.968;2023-07-30T00:31:05;3.97;;;1.98;;
46439;SDS011;32138;50.966;6.968;2023-07-30T00:32:36;8.43;;;2.22;;
46439;SDS011;32138;50.966;6.968;2023-07-30T00:34:10;4.57;;;2.33;;
46439;SDS011;32138;50.966;6.968;2023-07-30T00:35:41;4.43;;;2.33;;
46439;SDS011;32138;50.966;6.968;2023-07-30T00:37:11;4.30;;;2.50;;
46439;SDS011;32138;50.966;6.968;2023-07-30T00:38:42;3.15;;;1.88;;
46439;SDS011;32138;50.966;6.968;2023-07-30T00:40:13;4.20;;;2.30;;
46439;SDS011;32138;50.966;6.968;2023-07-30T00:41:44;4.45;;;2.28;;
46439;SDS011;32138;50.966;6.968;2023-07-30T00:43:16;3.40;;;2.40;;
46439;SDS011;32138;50.966;6.968;2023-07-30T00:44:46;4.40;;;2.33;;
46439;SDS011;32138;50.966;6.968;2023-07-30T00:46:17;3.97;;;2.42;;
46439;SDS011;32138;50.966;6.968;2023-07-30T00:47:48;4.65;;;2.35;;
46439;SDS011;32138;50.966;6.968;2023-07-30T00:49:19;6.70;;;2.28;;
46439;SDS011;32138;50.966;6.968;2023-07-30T00:50:49;3.03;;;2.00;;
46439;SDS011;32138;50.966;6.968;2023-07-30T00:52:20;3.72;;;2.53;;
46439;SDS011;32138;50.966;6.968;2023-07-30T00:53:53;5.03;;;2.90;;
46439;SDS011;32138;50.966;6.968;2023-07-30T00:55:24;3.40;;;2.20;;
46439;SDS011;32138;50.966;6.968;2023-07-30T00:56:55;4.65;;;1.98;;
46439;SDS011;32138;50.966;6.968;2023-07-30T00:58:25;5.25;;;2.53;;
46439;SDS011;32138;50.966;6.968;2023-07-30T00:59:57;3.20;;;2.03;;
46439;SDS011;32138;50.966;6.968;2023-07-30T01:01:29;4.10;;;2.70;;
46439;SDS011;32138;50.966;6.968;2023-07-30T01:03:06;5.97;;;2.72;;
46439;SDS011;32138;50.966;6.968;2023-07-30T01:04:37;2.97;;;2.50;;
46439;SDS011;32138;50.966;6.968;2023-07-30T01:06:09;3.80;;;2.10;;
46439;SDS011;32138;50.966;6.968;2023-07-30T01:07:42;6.93;;;2.65;;
46439;SDS011;32138;50.966;6.968;2023-07-30T01:09:13;5.82;;;2.67;;
46439;SDS011;32138;50.966;6.968;2023-07-30T01:10:44;3.72;;;2.47;;
46439;SDS011;32138;50.966;6.968;2023-07-30T01:12:15;3.50;;;2.15;;
46439;SDS011;32138;50.966;6.968;2023-07-30T01:13:46;4.00;;;2.63;;
46439;SDS011;32138;50.966;6.968;2023-07-30T01:15:17;4.70;;;2.92;;
46439;SDS011;32138;50.966;6.968;2023-07-30T01:16:48;5.45;;;3.03;;
46439;SDS011;32138;50.966;6.968;2023-07-30T01:18:19;6.70;;;2.47;;
46439;SDS011;32138;50.966;6.968;2023-07-30T01:19:52;3.95;;;2.33;;
46439;SDS011;32138;50.966;6.968;2023-07-30T01:21:24;6.20;;;2.35;;
46439;SDS011;32138;50.966;6.968;2023-07-30T01:22:55;5.78;;;2.40;;
46439;SDS011;32138;50.966;6.968;2023-07-30T01:24:26;5.07;;;2.60;;
46439;SDS011;32138;50.966;6.968;2023-07-30T01:26:03;3.22;;;2.22;;
46439;SDS011;32138;50.966;6.968;2023-07-30T01:27:39;4.78;;;2.67;;
46439;SDS011;32138;50.966;6.968;2023-07-30T01:29:16;3.78;;;2.58;;
46439;SDS011;32138;50.966;6.968;2023-07-30T01:30:53;5.63;;;2.90;;
46439;SDS011;32138;50.966;6.968;2023-07-30T01:32:26;6.72;;;2.90;;
46439;SDS011;32138;50.966;6.968;2023-07-30T01:33:58;2.58;;;2.30;;
46439;SDS011;32138;50.966;6.968;2023-07-30T01:35:31;4.20;;;2.35;;
46439;SDS011;32138;50.966;6.968;2023-07-30T01:37:03;7.57;;;2.55;;
46439;SDS011;32138;50.966;6.968;2023-07-30T01:38:36;8.60;;;2.72;;
46439;SDS011;32138;50.966;6.968;2023-07-30T01:40:08;7.75;;;2.78;;
46439;SDS011;32138;50.966;6.968;2023-07-30T01:41:40;3.53;;;2.67;;
46439;SDS011;32138;50.966;6.968;2023-07-30T01:43:11;4.72;;;2.67;;
46439;SDS011;32138;50.966;6.968;2023-07-30T01:44:42;8.07;;;2.42;;
46439;SDS011;32138;50.966;6.968;2023-07-30T01:46:13;5.25;;;2.95;;
46439;SDS011;32138;50.966;6.968;2023-07-30T01:47:43;4.68;;;2.20;;
46439;SDS011;32138;50.966;6.968;2023-07-30T01:49:14;4.88;;;2.60;;
46439;SDS011;32138;50.966;6.968;2023-07-30T01:50:45;9.35;;;2.60;;
46439;SDS011;32138;50.966;6.968;2023-07-30T01:52:18;4.53;;;2.65;;
46439;SDS011;32138;50.966;6.968;2023-07-30T01:53:49;5.28;;;2.58;;
46439;SDS011;32138;50.966;6.968;2023-07-30T01:55:20;7.07;;;2.80;;
46439;SDS011;32138;50.966;6.968;2023-07-30T01:56:51;7.75;;;2.38;;
46439;SDS011;32138;50.966;6.968;2023-07-30T01:58:23;6.22;;;2.40;;
46439;SDS011;32138;50.966;6.968;2023-07-30T01:59:54;6.38;;;2.60;;
46439;SDS011;32138;50.966;6.968;2023-07-30T02:01:24;8.77;;;2.38;;
46439;SDS011;32138;50.966;6.968;2023-07-30T02:02:55;5.63;;;2.10;;
46439;SDS011;32138;50.966;6.968;2023-07-30T02:04:26;5.90;;;2.58;;
46439;SDS011;32138;50.966;6.968;2023-07-30T02:05:56;3.45;;;2.53;;
46439;SDS011;32138;50.966;6.968;2023-07-30T02:07:27;5.50;;;2.97;;
46439;SDS011;32138;50.966;6.968;2023-07-30T02:08:58;7.57;;;2.75;;
46439;SDS011;32138;50.966;6.968;2023-07-30T02:10:28;6.50;;;2.10;;
46439;SDS011;32138;50.966;6.968;2023-07-30T02:11:59;4.47;;;2.53;;
46439;SDS011;32138;50.966;6.968;2023-07-30T02:13:30;5.45;;;2.67;;
46439;SDS011;32138;50.966;6.968;2023-07-30T02:15:01;6.53;;;2.75;;
46439;SDS011;32138;50.966;6.968;2023-07-30T02:16:31;5.45;;;2.45;;
46439;SDS011;32138;50.966;6.968;2023-07-30T02:18:02;8.77;;;2.92;;
46439;SDS011;32138;50.966;6.968;2023-07-30T02:19:33;6.97;;;2.40;;
46439;SDS011;32138;50.966;6.968;2023-07-30T02:21:04;5.07;;;2.67;;
46439;SDS011;32138;50.966;6.968;2023-07-30T02:22:34;5.47;;;2.40;;
46439;SDS011;32138;50.966;6.968;2023-07-30T02:24:05;7.43;;;2.47;;
46439;SDS011;32138;50.966;6.968;2023-07-30T02:25:39;8.30;;;3.03;;
46439;SDS011;32138;50.966;6.968;2023-07-30T02:27:10;10.82;;;3.42;;
46439;SDS011;32138;50.966;6.968;2023-07-30T02:28:41;5.82;;;2.40;;
46439;SDS011;32138;50.966;6.968;2023-07-30T02:30:12;9.20;;;3.15;;
46439;SDS011;32138;50.966;6.968;2023-07-30T02:31:42;5.07;;;2.55;;
46439;SDS011;32138;50.966;6.968;2023-07-30T02:33:13;4.88;;;2.53;;
46439;SDS011;32138;50.966;6.968;2023-07-30T02:34:44;8.73;;;2.20;;
46439;SDS011;32138;50.966;6.968;2023-07-30T02:36:14;5.15;;;2.42;;
46439;SDS011;32138;50.966;6.968;2023-07-30T02:37:45;5.45;;;2.60;;
46439;SDS011;32138;50.966;6.968;2023-07-30T02:39:16;6.68;;;2.85;;
46439;SDS011;32138;50.966;6.968;2023-07-30T02:40:47;4.57;;;2.35;;
46439;SDS011;32138;50.966;6.968;2023-07-30T02:42:17;7.57;;;3.17;;
46439;SDS011;32138;50.966;6.968;2023-07-30T02:43:48;8.73;;;2.53;;
46439;SDS011;32138;50.966;6.968;2023-07-30T02:45:19;4.53;;;2.42;;
46439;SDS011;32138;50.966;6.968;2023-07-30T02:46:50;6.25;;;3.20;;
46439;SDS011;32138;50.966;6.968;2023-07-30T02:48:20;9.43;;;3.15;;
46439;SDS011;32138;50.966;6.968;2023-07-30T02:49:51;6.10;;;2.45;;
46439;SDS011;32138;50.966;6.968;2023-07-30T02:51:22;7.43;;;2.60;;
46439;SDS011;32138;50.966;6.968;2023-07-30T02:52:53;6.75;;;2.78;;
46439;SDS011;32138;50.966;6.968;2023-07-30T02:54:23;4.82;;;2.85;;
46439;SDS011;32138;50.966;6.968;2023-07-30T02:55:54;11.18;;;3.25;;
46439;SDS011;32138;50.966;6.968;2023-07-30T02:57:25;7.15;;;3.15;;
46439;SDS011;32138;50.966;6.968;2023-07-30T02:58:56;5.68;;;2.55;;
46439;SDS011;32138;50.966;6.968;2023-07-30T03:00:28;7.35;;;3.00;;
46439;SDS011;32138;50.966;6.968;2023-07-30T03:01:59;4.40;;;2.53;;
46439;SDS011;32138;50.966;6.968;2023-07-30T03:03:30;8.73;;;3.22;;
46439;SDS011;32138;50.966;6.968;2023-07-30T03:05:01;6.15;;;2.88;;
46439;SDS011;32138;50.966;6.968;2023-07-30T03:06:31;10.65;;;3.08;;
46439;SDS011;32138;50.966;6.968;2023-07-30T03:08:02;6.22;;;2.80;;
46439;SDS011;32138;50.966;6.968;2023-07-30T03:09:33;7.75;;;2.90;;
46439;SDS011;32138;50.966;6.968;2023-07-30T03:11:04;5.78;;;2.22;;
46439;SDS011;32138;50.966;6.968;2023-07-30T03:12:34;5.57;;;2.42;;
46439;SDS011;32138;50.966;6.968;2023-07-30T03:14:05;4.22;;;2.33;;
46439;SDS011;32138;50.966;6.968;2023-07-30T03:15:36;8.35;;;2.60;;
46439;SDS011;32138;50.966;6.968;2023-07-30T03:17:07;6.72;;;3.00;;
46439;SDS011;32138;50.966;6.968;2023-07-30T03:18:37;5.75;;;2.42;;
46439;SDS011;32138;50.966;6.968;2023-07-30T03:20:08;8.73;;;2.80;;
46439;SDS011;32138;50.966;6.968;2023-07-30T03:21:39;6.35;;;2.92;;
46439;SDS011;32138;50.966;6.968;2023-07-30T03:23:11;5.70;;;2.40;;
46439;SDS011;32138;50.966;6.968;2023-07-30T03:24:41;6.60;;;2.95;;
46439;SDS011;32138;50.966;6.968;2023-07-30T03:26:12;7.00;;;2.90;;
46439;SDS011;32138;50.966;6.968;2023-07-30T03:27:43;8.90;;;2.58;;
46439;SDS011;32138;50.966;6.968;2023-07-30T03:29:14;8.15;;;3.83;;
46439;SDS011;32138;50.966;6.968;2023-07-30T03:30:45;6.82;;;3.00;;
46439;SDS011;32138;50.966;6.968;2023-07-30T03:32:16;6.68;;;2.72;;
46439;SDS011;32138;50.966;6.968;2023-07-30T03:33:47;9.63;;;2.90;;
46439;SDS011;32138;50.966;6.968;2023-07-30T03:35:18;9.98;;;3.45;;
46439;SDS011;32138;50.966;6.968;2023-07-30T03:36:49;6.65;;;2.97;;
46439;SDS011;32138;50.966;6.968;2023-07-30T03:38:19;9.85;;;2.47;;
46439;SDS011;32138;50.966;6.968;2023-07-30T03:39:50;5.85;;;2.83;;
46439;SDS011;32138;50.966;6.968;2023-07-30T03:41:21;10.63;;;2.80;;
46439;SDS011;32138;50.966;6.968;2023-07-30T03:42:52;6.13;;;2.92;;
46439;SDS011;32138;50.966;6.968;2023-07-30T03:44:23;6.78;;;2.72;;
46439;SDS011;32138;50.966;6.968;2023-07-30T03:45:54;4.55;;;3.00;;
46439;SDS011;32138;50.966;6.968;2023-07-30T03:47:25;8.88;;;2.75;;
46439;SDS011;32138;50.966;6.968;2023-07-30T03:48:55;6.70;;;3.13;;
46439;SDS011;32138;50.966;6.968;2023-07-30T03:50:26;6.57;;;3.00;;
46439;SDS011;32138;50.966;6.968;2023-07-30T03:51:57;8.23;;;3.15;;
46439;SDS011;32138;50.966;6.968;2023-07-30T03:53:27;8.13;;;2.72;;
46439;SDS011;32138;50.966;6.968;2023-07-30T03:54:58;11.00;;;2.83;;
46439;SDS011;32138;50.966;6.968;2023-07-30T03:56:29;7.30;;;3.55;;
46439;SDS011;32138;50.966;6.968;2023-07-30T03:58:00;6.75;;;3.25;;
46439;SDS011;32138;50.966;6.968;2023-07-30T03:59:30;8.15;;;2.85;;
46439;SDS011;32138;50.966;6.968;2023-07-30T04:01:01;8.32;;;3.50;;
46439;SDS011;32138;50.966;6.968;2023-07-30T04:02:32;7.22;;;2.83;;
46439;SDS011;32138;50.966;6.968;2023-07-30T04:04:03;7.28;;;2.83;;
46439;SDS011;32138;50.966;6.968;2023-07-30T04:05:34;9.68;;;3.13;;
46439;SDS011;32138;50.966;6.968;2023-07-30T04:07:04;5.70;;;3.00;;
46439;SDS011;32138;50.966;6.968;2023-07-30T04:08:35;10.45;;;3.55;;
46439;SDS011;32138;50.966;6.968;2023-07-30T04:10:06;6.65;;;3.10;;
46439;SDS011;32138;50.966;6.968;2023-07-30T04:11:38;7.88;;;3.13;;
46439;SDS011;32138;50.966;6.968;2023-07-30T04:13:09;8.73;;;2.90;;
46439;SDS011;32138;50.966;6.968;2023-07-30T04:14:39;11.98;;;3.50;;
46439;SDS011;32138;50.966;6.968;2023-07-30T04:16:10;7.47;;;3.10;;
46439;SDS011;32138;50.966;6.968;2023-07-30T04:17:41;9.43;;;3.55;;
46439;SDS011;32138;50.966;6.968;2023-07-30T04:19:12;7.05;;;3.17;;
46439;SDS011;32138;50.966;6.968;2023-07-30T04:20:44;8.75;;;2.55;;
46439;SDS011;32138;50.966;6.968;2023-07-30T04:22:14;10.20;;;3.75;;
46439;SDS011;32138;50.966;6.968;2023-07-30T04:23:45;8.07;;;3.38;;
46439;SDS011;32138;50.966;6.968;2023-07-30T04:25:16;9.00;;;2.85;;
46439;SDS011;32138;50.966;6.968;2023-07-30T04:26:47;7.82;;;3.55;;
46439;SDS011;32138;50.966;6.968;2023-07-30T04:28:18;6.53;;;2.45;;
46439;SDS011;32138;50.966;6.968;2023-07-30T04:29:48;9.52;;;3.03;;
46439;SDS011;32138;50.966;6.968;2023-07-30T04:31:19;6.13;;;3.25;;
46439;SDS011;32138;50.966;6.968;2023-07-30T04:32:50;9.60;;;2.67;;
46439;SDS011;32138;50.966;6.968;2023-07-30T04:34:21;5.95;;;2.88;;
46439;SDS011;32138;50.966;6.968;2023-07-30T04:35:51;7.40;;;2.83;;
46439;SDS011;32138;50.966;6.968;2023-07-30T04:37:22;7.65;;;3.20;;
46439;SDS011;32138;50.966;6.968;2023-07-30T04:38:53;7.85;;;2.80;;
46439;SDS011;32138;50.966;6.968;2023-07-30T04:40:24;11.70;;;3.33;;
46439;SDS011;32138;50.966;6.968;2023-07-30T04:41:55;8.43;;;3.58;;
46439;SDS011;32138;50.966;6.968;2023-07-30T04:43:26;10.07;;;3.53;;
46439;SDS011;32138;50.966;6.968;2023-07-30T04:44:57;7.35;;;2.67;;
46439;SDS011;32138;50.966;6.968;2023-07-30T04:46:28;5.22;;;2.65;;
46439;SDS011;32138;50.966;6.968;2023-07-30T04:47:59;9.30;;;3.10;;
46439;SDS011;32138;50.966;6.968;2023-07-30T04:49:30;10.10;;;3.00;;
46439;SDS011;32138;50.966;6.968;2023-07-30T04:51:01;7.18;;;3.53;;
46439;SDS011;32138;50.966;6.968;2023-07-30T04:52:32;6.25;;;3.13;;
46439;SDS011;32138;50.966;6.968;2023-07-30T04:54:02;11.02;;;3.50;;
46439;SDS011;32138;50.966;6.968;2023-07-30T04:55:33;9.05;;;3.72;;
46439;SDS011;32138;50.966;6.968;2023-07-30T04:57:04;9.65;;;3.40;;
46439;SDS011;32138;50.966;6.968;2023-07-30T04:58:36;11.05;;;3.08;;
46439;SDS011;32138;50.966;6.968;2023-07-30T05:00:06;12.73;;;3.92;;
46439;SDS011;32138;50.966;6.968;2023-07-30T05:01:38;6.88;;;2.95;;
46439;SDS011;32138;50.966;6.968;2023-07-30T05:03:08;9.43;;;3.42;;
46439;SDS011;32138;50.966;6.968;2023-07-30T05:04:40;10.35;;;2.60;;
46439;SDS011;32138;50.966;6.968;2023-07-30T05:06:11;11.60;;;3.15;;
46439;SDS011;32138;50.966;6.968;2023-07-30T05:07:42;6.57;;;2.67;;
46439;SDS011;32138;50.966;6.968;2023-07-30T05:09:13;12.38;;;3.20;;
46439;SDS011;32138;50.966;6.968;2023-07-30T05:10:43;7.53;;;2.20;;
46439;SDS011;32138;50.966;6.968;2023-07-30T05:12:14;9.10;;;2.58;;
46439;SDS011;32138;50.966;6.968;2023-07-30T05:13:45;4.93;;;2.42;;
46439;SDS011;32138;50.966;6.968;2023-07-30T05:15:16;6.40;;;2.70;;
46439;SDS011;32138;50.966;6.968;2023-07-30T05:16:46;11.77;;;2.95;;
46439;SDS011;32138;50.966;6.968;2023-07-30T05:18:17;12.88;;;3.05;;
46439;SDS011;32138;50.966;6.968;2023-07-30T05:19:48;10.30;;;2.67;;
46439;SDS011;32138;50.966;6.968;2023-07-30T05:21:19;6.25;;;2.30;;
46439;SDS011;32138;50.966;6.968;2023-07-30T05:22:50;8.23;;;2.40;;
46439;SDS011;32138;50.966;6.968;2023-07-30T05:24:20;7.10;;;2.45;;
46439;SDS011;32138;50.966;6.968;2023-07-30T05:25:51;10.73;;;2.60;;
46439;SDS011;32138;50.966;6.968;2023-07-30T05:27:22;7.22;;;2.15;;
46439;SDS011;32138;50.966;6.968;2023-07-30T05:28:53;8.20;;;2.38;;
46439;SDS011;32138;50.966;6.968;2023-07-30T05:30:23;11.68;;;2.58;;
46439;SDS011;32138;50.966;6.968;2023-07-30T05:31:54;7.68;;;2.35;;
46439;SDS011;32138;50.966;6.968;2023-07-30T05:33:25;9.73;;;2.45;;
46439;SDS011;32138;50.966;6.968;2023-07-30T05:34:55;8.85;;;1.90;;
46439;SDS011;32138;50.966;6.968;2023-07-30T05:36:26;9.73;;;3.20;;
46439;SDS011;32138;50.966;6.968;2023-07-30T05:37:57;6.13;;;2.35;;
46439;SDS011;32138;50.966;6.968;2023-07-30T05:39:28;9.25;;;2.55;;
46439;SDS011;32138;50.966;6.968;2023-07-30T05:40:58;9.10;;;2.10;;
46439;SDS011;32138;50.966;6.968;2023-07-30T05:42:29;5.38;;;2.28;;
46439;SDS011;32138;50.966;6.968;2023-07-30T05:44:00;8.70;;;2.65;;
46439;SDS011;32138;50.966;6.968;2023-07-30T05:45:30;11.05;;;2.38;;
46439;SDS011;32138;50.966;6.968;2023-07-30T05:47:01;7.53;;;1.92;;
46439;SDS011;32138;50.966;6.968;2023-07-30T05:48:32;12.23;;;3.10;;
46439;SDS011;32138;50.966;6.968;2023-07-30T05:50:03;9.82;;;2.53;;
46439;SDS011;32138;50.966;6.968;2023-07-30T05:51:35;9.52;;;2.22;;
46439;SDS011;32138;50.966;6.968;2023-07-30T05:53:06;8.02;;;2.28;;
46439;SDS011;32138;50.966;6.968;2023-07-30T05:54:36;8.32;;;2.08;;
46439;SDS011;32138;50.966;6.968;2023-07-30T05:56:07;6.50;;;2.22;;
46439;SDS011;32138;50.966;6.968;2023-07-30T05:57:38;8.32;;;2.20;;
46439;SDS011;32138;50.966;6.968;2023-07-30T05:59:08;6.78;;;2.35;;
46439;SDS011;32138;50.966;6.968;2023-07-30T06:00:39;7.72;;;2.53;;
46439;SDS011;32138;50.966;6.968;2023-07-30T06:02:10;5.45;;;1.70;;
46439;SDS011;32138;50.966;6.968;2023-07-30T06:03:41;6.22;;;2.22;;
46439;SDS011;32138;50.966;6.968;2023-07-30T06:05:11;6.95;;;2.10;;
46439;SDS011;32138;50.966;6.968;2023-07-30T06:06:42;6.78;;;2.28;;
46439;SDS011;32138;50.966;6.968;2023-07-30T06:08:13;7.05;;;1.92;;
46439;SDS011;32138;50.966;6.968;2023-07-30T06:09:44;4.85;;;1.90;;
46439;SDS011;32138;50.966;6.968;2023-07-30T06:11:15;10.45;;;2.75;;
46439;SDS011;32138;50.966;6.968;2023-07-30T06:12:46;8.30;;;2.45;;
46439;SDS011;32138;50.966;6.968;2023-07-30T06:14:16;8.13;;;1.80;;
46439;SDS011;32138;50.966;6.968;2023-07-30T06:15:47;11.85;;;2.15;;
46439;SDS011;32138;50.966;6.968;2023-07-30T06:17:18;9.30;;;2.55;;
46439;SDS011;32138;50.966;6.968;2023-07-30T06:18:49;7.95;;;2.30;;
46439;SDS011;32138;50.966;6.968;2023-07-30T06:20:19;5.10;;;2.13;;
46439;SDS011;32138;50.966;6.968;2023-07-30T06:21:50;8.68;;;2.53;;
46439;SDS011;32138;50.966;6.968;2023-07-30T06:23:21;8.82;;;2.17;;
46439;SDS011;32138;50.966;6.968;2023-07-30T06:24:51;7.15;;;2.40;;
46439;SDS011;32138;50.966;6.968;2023-07-30T06:26:22;5.35;;;1.95;;
46439;SDS011;32138;50.966;6.968;2023-07-30T06:27:53;8.02;;;2.42;;
46439;SDS011;32138;50.966;6.968;2023-07-30T06:29:26;8.02;;;2.70;;
46439;SDS011;32138;50.966;6.968;2023-07-30T06:30:59;6.20;;;2.17;;
46439;SDS011;32138;50.966;6.968;2023-07-30T06:32:31;6.13;;;2.25;;
46439;SDS011;32138;50.966;6.968;2023-07-30T06:34:02;8.27;;;2.38;;
46439;SDS011;32138;50.966;6.968;2023-07-30T06:35:33;7.28;;;3.25;;
46439;SDS011;32138;50.966;6.968;2023-07-30T06:37:04;14.05;;;8.15;;
46439;SDS011;32138;50.966;6.968;2023-07-30T06:38:34;15.43;;;10.05;;
46439;SDS011;32138;50.966;6.968;2023-07-30T06:40:05;13.25;;;7.53;;
46439;SDS011;32138;50.966;6.968;2023-07-30T06:41:37;8.63;;;7.22;;
46439;SDS011;32138;50.966;6.968;2023-07-30T06:43:08;9.85;;;2.85;;
46439;SDS011;32138;50.966;6.968;2023-07-30T06:44:38;10.88;;;2.38;;
46439;SDS011;32138;50.966;6.968;2023-07-30T06:46:09;9.27;;;1.98;;
46439;SDS011;32138;50.966;6.968;2023-07-30T06:47:40;5.82;;;2.22;;
46439;SDS011;32138;50.966;6.968;2023-07-30T06:49:11;6.70;;;2.15;;
46439;SDS011;32138;50.966;6.968;2023-07-30T06:50:41;8.40;;;1.75;;
46439;SDS011;32138;50.966;6.968;2023-07-30T06:52:12;6.45;;;2.03;;
46439;SDS011;32138;50.966;6.968;2023-07-30T06:53:43;5.40;;;1.80;;
46439;SDS011;32138;50.966;6.968;2023-07-30T06:55:14;5.78;;;1.75;;
46439;SDS011;32138;50.966;6.968;2023-07-30T06:56:45;7.45;;;1.90;;
46439;SDS011;32138;50.966;6.968;2023-07-30T06:58:15;6.50;;;2.30;;
46439;SDS011;32138;50.966;6.968;2023-07-30T06:59:46;7.53;;;2.35;;
46439;SDS011;32138;50.966;6.968;2023-07-30T07:01:17;4.38;;;1.92;;
46439;SDS011;32138;50.966;6.968;2023-07-30T07:02:48;10.23;;;2.35;;
46439;SDS011;32138;50.966;6.968;2023-07-30T07:04:19;6.22;;;1.95;;
46439;SDS011;32138;50.966;6.968;2023-07-30T07:05:53;4.53;;;1.48;;
46439;SDS011;32138;50.966;6.968;2023-07-30T07:07:25;7.30;;;1.67;;
46439;SDS011;32138;50.966;6.968;2023-07-30T07:08:55;13.18;;;1.85;;
46439;SDS011;32138;50.966;6.968;2023-07-30T07:10:26;5.68;;;2.00;;
46439;SDS011;32138;50.966;6.968;2023-07-30T07:11:57;5.70;;;1.90;;
46439;SDS011;32138;50.966;6.968;2023-07-30T07:13:29;7.80;;;1.83;;
46439;SDS011;32138;50.966;6.968;2023-07-30T07:15:00;3.72;;;1.77;;
46439;SDS011;32138;50.966;6.968;2023-07-30T07:16:34;6.47;;;2.05;;
46439;SDS011;32138;50.966;6.968;2023-07-30T07:18:05;6.43;;;1.77;;
46439;SDS011;32138;50.966;6.968;2023-07-30T07:19:35;6.88;;;1.65;;
46439;SDS011;32138;50.966;6.968;2023-07-30T07:21:06;6.10;;;1.50;;
46439;SDS011;32138;50.966;6.968;2023-07-30T07:22:38;6.20;;;1.30;;
46439;SDS011;32138;50.966;6.968;2023-07-30T07:24:09;4.13;;;1.30;;
46439;SDS011;32138;50.966;6.968;2023-07-30T07:25:39;7.20;;;2.05;;
46439;SDS011;32138;50.966;6.968;2023-07-30T07:27:10;6.70;;;1.30;;
46439;SDS011;32138;50.966;6.968;2023-07-30T07:28:41;5.57;;;1.67;;
46439;SDS011;32138;50.966;6.968;2023-07-30T07:30:12;7.43;;;1.65;;
46439;SDS011;32138;50.966;6.968;2023-07-30T07:31:42;7.25;;;1.63;;
46439;SDS011;32138;50.966;6.968;2023-07-30T07:33:15;8.98;;;1.67;;
46439;SDS011;32138;50.966;6.968;2023-07-30T07:34:46;4.55;;;1.73;;
46439;SDS011;32138;50.966;6.968;2023-07-30T07:36:18;8.45;;;1.90;;
46439;SDS011;32138;50.966;6.968;2023-07-30T07:37:48;6.78;;;1.67;;
46439;SDS011;32138;50.966;6.968;2023-07-30T07:39:19;5.70;;;1.38;;
46439;SDS011;32138;50.966;6.968;2023-07-30T07:40:50;6.65;;;2.05;;
46439;SDS011;32138;50.966;6.968;2023-07-30T07:42:21;8.18;;;2.67;;
46439;SDS011;32138;50.966;6.968;2023-07-30T07:43:52;10.43;;;1.98;;
46439;SDS011;32138;50.966;6.968;2023-07-30T07:45:23;7.95;;;1.85;;
46439;SDS011;32138;50.966;6.968;2023-07-30T07:46:54;9.93;;;2.78;;
46439;SDS011;32138;50.966;6.968;2023-07-30T07:48:25;6.10;;;1.85;;
46439;SDS011;32138;50.966;6.968;2023-07-30T07:49:56;7.22;;;2.78;;
46439;SDS011;32138;50.966;6.968;2023-07-30T07:51:27;8.48;;;2.20;;
46439;SDS011;32138;50.966;6.968;2023-07-30T07:52:57;6.90;;;1.95;;
46439;SDS011;32138;50.966;6.968;2023-07-30T07:54:28;7.15;;;2.10;;
46439;SDS011;32138;50.966;6.968;2023-07-30T07:55:59;9.10;;;2.35;;
46439;SDS011;32138;50.966;6.968;2023-07-30T07:57:30;9.80;;;2.60;;
46439;SDS011;32138;50.966;6.968;2023-07-30T07:59:01;8.40;;;2.58;;
46439;SDS011;32138;50.966;6.968;2023-07-30T08:00:31;9.70;;;2.13;;
46439;SDS011;32138;50.966;6.968;2023-07-30T08:02:02;8.13;;;2.47;;
46439;SDS011;32138;50.966;6.968;2023-07-30T08:03:33;6.25;;;2.30;;
46439;SDS011;32138;50.966;6.968;2023-07-30T08:05:04;14.75;;;3.05;;
46439;SDS011;32138;50.966;6.968;2023-07-30T08:06:35;7.55;;;2.17;;
46439;SDS011;32138;50.966;6.968;2023-07-30T08:08:06;9.48;;;2.83;;
46439;SDS011;32138;50.966;6.968;2023-07-30T08:09:37;10.75;;;2.28;;
46439;SDS011;32138;50.966;6.968;2023-07-30T08:11:08;8.40;;;2.22;;
46439;SDS011;32138;50.966;6.968;2023-07-30T08:12:39;4.55;;;2.03;;
46439;SDS011;32138;50.966;6.968;2023-07-30T08:14:10;8.43;;;2.10;;
46439;SDS011;32138;50.966;6.968;2023-07-30T08:15:40;5.82;;;2.22;;
46439;SDS011;32138;50.966;6.968;2023-07-30T08:17:11;6.95;;;2.70;;
46439;SDS011;32138;50.966;6.968;2023-07-30T08:18:42;7.45;;;2.80;;
46439;SDS011;32138;50.966;6.968;2023-07-30T08:20:13;13.25;;;2.92;;
46439;SDS011;32138;50.966;6.968;2023-07-30T08:21:44;9.07;;;2.55;;
46439;SDS011;32138;50.966;6.968;2023-07-30T08:23:15;7.70;;;2.92;;
46439;SDS011;32138;50.966;6.968;2023-07-30T08:24:45;8.07;;;2.22;;
46439;SDS011;32138;50.966;6.968;2023-07-30T08:26:16;9.82;;;3.15;;
46439;SDS011;32138;50.966;6.968;2023-07-30T08:27:47;9.52;;;2.67;;
46439;SDS011;32138;50.966;6.968;2023-07-30T08:29:18;9.52;;;2.65;;
46439;SDS011;32138;50.966;6.968;2023-07-30T08:30:48;11.20;;;2.67;;
46439;SDS011;32138;50.966;6.968;2023-07-30T08:32:19;7.63;;;2.15;;
46439;SDS011;32138;50.966;6.968;2023-07-30T08:33:50;8.73;;;2.92;;
46439;SDS011;32138;50.966;6.968;2023-07-30T08:35:21;11.20;;;3.22;;
46439;SDS011;32138;50.966;6.968;2023-07-30T08:36:52;9.73;;;3.22;;
46439;SDS011;32138;50.966;6.968;2023-07-30T08:38:23;8.82;;;2.63;;
46439;SDS011;32138;50.966;6.968;2023-07-30T08:39:54;9.38;;;2.63;;
46439;SDS011;32138;50.966;6.968;2023-07-30T08:41:25;9.07;;;2.67;;
46439;SDS011;32138;50.966;6.968;2023-07-30T08:42:55;10.93;;;3.30;;
46439;SDS011;32138;50.966;6.968;2023-07-30T08:44:27;8.95;;;3.22;;
46439;SDS011;32138;50.966;6.968;2023-07-30T08:45:59;10.98;;;3.20;;
46439;SDS011;32138;50.966;6.968;2023-07-30T08:47:30;10.93;;;3.35;;
46439;SDS011;32138;50.966;6.968;2023-07-30T08:49:00;12.45;;;3.05;;
46439;SDS011;32138;50.966;6.968;2023-07-30T08:50:31;15.25;;;4.35;;
46439;SDS011;32138;50.966;6.968;2023-07-30T08:52:06;15.88;;;5.25;;
46439;SDS011;32138;50.966;6.968;2023-07-30T08:53:39;13.80;;;3.65;;
46439;SDS011;32138;50.966;6.968;2023-07-30T08:55:12;14.40;;;3.08;;
46439;SDS011;32138;50.966;6.968;2023-07-30T08:56:43;14.18;;;3.33;;
46439;SDS011;32138;50.966;6.968;2023-07-30T08:58:14;11.13;;;3.13;;
46439;SDS011;32138;50.966;6.968;2023-07-30T08:59:49;9.68;;;3.28;;
46439;SDS011;32138;50.966;6.968;2023-07-30T09:01:24;12.43;;;3.60;;
46439;SDS011;32138;50.966;6.968;2023-07-30T09:03:02;12.88;;;3.63;;
46439;SDS011;32138;50.966;6.968;2023-07-30T09:04:34;13.25;;;2.85;;
46439;SDS011;32138;50.966;6.968;2023-07-30T09:06:07;8.00;;;3.08;;
46439;SDS011;32138;50.966;6.968;2023-07-30T09:07:38;11.85;;;3.17;;